Time;durP1;ratioP1;P1;durP2;ratioP2;P2;SDS_P1;SDS_P2;PMS_P1;PMS_P2;Temp;Humidity;BMP_temperature;BMP_pressure;BME280_temperature;BME280_humidity;BME280_pressure;Samples;Min_cycle;Max_cycle;Signal;HPM_P1;HPM_P2
2023/10/30 00:00:08;;;;;;;0.00;0.00;;;;;;;;;;4970735;28;20034;-86
2023/10/30 00:02:37;;;;;;;0.00;0.00;;;;;;;;;;4994843;28;20049;-86
2023/10/30 00:05:03;;;;;;;0.00;0.00;;;;;;;;;;4995087;28;20420;-86
2023/10/30 00:07:28;;;;;;;0.00;0.00;;;;;;;;;;4993901;28;20033;-86
2023/10/30 00:09:55;;;;;;;0.00;0.00;;;;;;;;;;4995010;28;20129;-86
2023/10/30 00:12:20;;;;;;;0.22;0.00;;;;;;;;;;4993318;28;20133;-86
2023/10/30 00:14:46;;;;;;;0.00;0.00;;;;;;;;;;4997957;28;20093;-86
2023/10/30 00:17:14;;;;;;;0.00;0.00;;;;;;;;;;5013508;28;20026;-85
2023/10/30 00:19:40;;;;;;;0.00;0.00;;;;;;;;;;4966976;28;20026;-86
2023/10/30 00:22:08;;;;;;;0.00;0.00;;;;;;;;;;4977369;28;20137;-86
2023/10/30 00:24:57;;;;;;;;;;;;;;;;;;;;;
2023/10/30 00:27:49;;;;;;;0.00;0.00;;;;;;;;;;4944285;28;20056;-86
2023/10/30 00:30:14;;;;;;;0.00;0.00;;;;;;;;;;4975019;28;20369;-86
2023/10/30 00:33:00;;;;;;;0.00;0.00;;;;;;;;;;4991141;28;20050;-86
2023/10/30 00:35:26;;;;;;;0.00;0.00;;;;;;;;;;5000533;28;20042;-86
2023/10/30 00:37:51;;;;;;;0.00;0.00;;;;;;;;;;5005053;28;20031;-85
2023/10/30 00:40:16;;;;;;;0.00;0.00;;;;;;;;;;4994943;28;20448;-85
2023/10/30 00:42:42;;;;;;;0.00;0.00;;;;;;;;;;4961116;28;20057;-85
2023/10/30 00:45:13;;;;;;;0.00;0.00;;;;;;;;;;4994028;28;20022;-85
2023/10/30 00:47:39;;;;;;;0.00;0.00;;;;;;;;;;4977851;28;20034;-85
2023/10/30 00:50:07;;;;;;;0.00;0.00;;;;;;;;;;4993153;28;20077;-85
2023/10/30 00:52:33;;;;;;;0.00;0.00;;;;;;;;;;4994261;28;20033;-85
2023/10/30 00:54:59;;;;;;;0.00;0.00;;;;;;;;;;4988677;28;20018;-87
2023/10/30 00:57:25;;;;;;;0.00;0.00;;;;;;;;;;5005232;28;20038;-85
2023/10/30 00:59:50;;;;;;;0.00;0.00;;;;;;;;;;4994523;28;20038;-86
2023/10/30 01:03:01;;;;;;;0.00;0.00;;;;;;;;;;4988468;28;20093;-85
2023/10/30 01:05:14;;;;;;;0.00;0.00;;;;;;;;;;4965934;28;20096;-86
2023/10/30 01:07:39;;;;;;;0.00;0.00;;;;;;;;;;4959574;28;20144;-86
2023/10/30 01:10:06;;;;;;;0.00;0.00;;;;;;;;;;4976899;28;20456;-85
2023/10/30 01:12:31;;;;;;;0.00;0.00;;;;;;;;;;4976706;28;20070;-86
2023/10/30 01:14:59;;;;;;;0.00;0.00;;;;;;;;;;5007044;28;20070;-86
2023/10/30 01:17:24;;;;;;;0.00;0.00;;;;;;;;;;5000336;28;20447;-86
2023/10/30 01:19:50;;;;;;;0.00;0.00;;;;;;;;;;4992960;28;20034;-86
2023/10/30 01:22:31;;;;;;;0.00;0.00;;;;;;;;;;4993311;28;20038;-86
2023/10/30 01:25:04;;;;;;;0.00;0.00;;;;;;;;;;4992939;28;20453;-86
2023/10/30 01:27:30;;;;;;;0.00;0.00;;;;;;;;;;4983949;28;20027;-85
2023/10/30 01:29:55;;;;;;;0.00;0.00;;;;;;;;;;4993718;28;20052;-85
2023/10/30 01:32:21;;;;;;;0.00;0.00;;;;;;;;;;5010191;28;20069;-85
2023/10/30 01:34:46;;;;;;;0.00;0.00;;;;;;;;;;4961867;28;20023;-86
2023/10/30 01:37:12;;;;;;;0.00;0.00;;;;;;;;;;4977757;28;20043;-85
2023/10/30 01:39:39;;;;;;;0.00;0.00;;;;;;;;;;4973970;28;20445;-86
2023/10/30 01:42:06;;;;;;;0.00;0.00;;;;;;;;;;4958135;28;20039;-86
2023/10/30 01:44:33;;;;;;;0.00;0.00;;;;;;;;;;4958701;28;20449;-86
2023/10/30 01:46:59;;;;;;;0.00;0.00;;;;;;;;;;4961240;28;20077;-86
2023/10/30 01:49:24;;;;;;;0.00;0.00;;;;;;;;;;4987314;28;20469;-85
2023/10/30 01:51:50;;;;;;;0.00;0.00;;;;;;;;;;4968774;28;20078;-86
2023/10/30 01:54:15;;;;;;;0.00;0.00;;;;;;;;;;5003083;28;20030;-86
2023/10/30 01:56:41;;;;;;;0.00;0.00;;;;;;;;;;4948524;28;20026;-86
2023/10/30 01:59:06;;;;;;;0.00;0.00;;;;;;;;;;4980388;28;20026;-86
2023/10/30 02:01:32;;;;;;;0.00;0.00;;;;;;;;;;4979679;28;20104;-86
2023/10/30 02:03:58;;;;;;;0.00;0.00;;;;;;;;;;4945371;28;20026;-86
2023/10/30 02:06:23;;;;;;;0.00;0.00;;;;;;;;;;4962785;28;20054;-86
2023/10/30 02:08:49;;;;;;;0.00;0.00;;;;;;;;;;4979997;28;20113;-86
2023/10/30 02:11:14;;;;;;;0.00;0.00;;;;;;;;;;5003206;28;20050;-86
2023/10/30 02:13:39;;;;;;;0.00;0.00;;;;;;;;;;5012900;28;20070;-86
2023/10/30 02:16:05;;;;;;;0.00;0.00;;;;;;;;;;4979446;28;20058;-86
2023/10/30 02:18:31;;;;;;;0.00;0.00;;;;;;;;;;4996942;28;20117;-85
2023/10/30 02:20:56;;;;;;;0.00;0.00;;;;;;;;;;4996907;28;20129;-85
2023/10/30 02:23:22;;;;;;;0.00;0.00;;;;;;;;;;4996830;28;20106;-86
2023/10/30 02:25:47;;;;;;;0.00;0.00;;;;;;;;;;4998490;28;20036;-85
2023/10/30 02:28:13;;;;;;;0.00;0.00;;;;;;;;;;5016091;28;20033;-85
2023/10/30 02:30:38;;;;;;;0.00;0.00;;;;;;;;;;5020600;28;20018;-86
2023/10/30 02:33:03;;;;;;;0.00;0.00;;;;;;;;;;5018398;28;20113;-86
2023/10/30 02:35:45;;;;;;;;;;;;;;;;;;;;;
2023/10/30 02:38:11;;;;;;;0.00;0.00;;;;;;;;;;5001831;28;20032;-86
2023/10/30 02:40:47;;;;;;;0.00;0.00;;;;;;;;;;4999016;28;20426;-86
2023/10/30 02:43:18;;;;;;;0.00;0.00;;;;;;;;;;4999840;28;20120;-86
2023/10/30 02:45:55;;;;;;;;;;;;;;;;;;4999211;28;20030;-86
2023/10/30 02:48:21;;;;;;;0.00;0.00;;;;;;;;;;5015398;28;19917;-85
2023/10/30 02:50:49;;;;;;;0.00;0.00;;;;;;;;;;5030144;28;20029;-86
2023/10/30 02:53:14;;;;;;;0.00;0.00;;;;;;;;;;5025770;28;20045;-86
2023/10/30 02:55:40;;;;;;;0.00;0.00;;;;;;;;;;5015330;28;20372;-86
2023/10/30 02:58:05;;;;;;;0.00;0.00;;;;;;;;;;4996010;28;20467;-86
2023/10/30 03:00:34;;;;;;;0.00;0.00;;;;;;;;;;4998008;28;20414;-86
2023/10/30 03:02:59;;;;;;;0.00;0.00;;;;;;;;;;4981974;28;20014;-85
2023/10/30 03:05:25;;;;;;;0.00;0.00;;;;;;;;;;5023120;28;20167;-86
2023/10/30 03:07:50;;;;;;;0.00;0.00;;;;;;;;;;4999092;28;20072;-85
2023/10/30 03:10:16;;;;;;;0.00;0.00;;;;;;;;;;5028178;28;20037;-86
2023/10/30 03:12:41;;;;;;;0.00;0.00;;;;;;;;;;5004526;28;20486;-86
2023/10/30 03:15:08;;;;;;;0.00;0.00;;;;;;;;;;5015902;28;20022;-86
2023/10/30 03:17:34;;;;;;;0.00;0.00;;;;;;;;;;5015094;28;20029;-86
2023/10/30 03:19:59;;;;;;;0.00;0.00;;;;;;;;;;4981948;28;20080;-86
2023/10/30 03:22:25;;;;;;;0.00;0.00;;;;;;;;;;4997589;28;20056;-86
2023/10/30 03:24:51;;;;;;;0.00;0.00;;;;;;;;;;4997724;28;20036;-86
2023/10/30 03:27:16;;;;;;;0.00;0.00;;;;;;;;;;4997818;28;20040;-86
2023/10/30 03:29:42;;;;;;;0.00;0.00;;;;;;;;;;5037473;28;20072;-86
2023/10/30 03:32:08;;;;;;;0.00;0.00;;;;;;;;;;5020954;28;20033;-84
2023/10/30 03:34:34;;;;;;;0.00;0.00;;;;;;;;;;5015125;28;20088;-85
2023/10/30 03:37:00;;;;;;;0.00;0.00;;;;;;;;;;4977285;28;20018;-85
2023/10/30 03:39:26;;;;;;;0.00;0.00;;;;;;;;;;4978293;28;20774;-85
2023/10/30 03:41:51;;;;;;;0.00;0.00;;;;;;;;;;4962333;28;20455;-85
2023/10/30 03:44:19;;;;;;;0.00;0.00;;;;;;;;;;4961859;28;20037;-87
2023/10/30 03:46:45;;;;;;;0.00;0.00;;;;;;;;;;4963931;28;20121;-87
2023/10/30 03:49:14;;;;;;;0.00;0.00;;;;;;;;;;4982799;28;20057;-84
2023/10/30 03:51:39;;;;;;;0.00;0.00;;;;;;;;;;4997622;28;20022;-85
2023/10/30 03:54:05;;;;;;;0.00;0.00;;;;;;;;;;4995194;28;20018;-85
2023/10/30 03:56:31;;;;;;;0.00;0.00;;;;;;;;;;4994067;28;20544;-85
2023/10/30 03:59:22;;;;;;;0.00;0.00;;;;;;;;;;4993290;28;20117;-86
2023/10/30 04:01:47;;;;;;;0.00;0.00;;;;;;;;;;4994930;28;20030;-86
2023/10/30 04:04:13;;;;;;;0.00;0.00;;;;;;;;;;4993870;28;20089;-86
2023/10/30 04:06:38;;;;;;;0.00;0.00;;;;;;;;;;4973559;28;20030;-86
2023/10/30 04:09:04;;;;;;;0.00;0.00;;;;;;;;;;5017366;28;20041;-86
2023/10/30 04:11:33;;;;;;;0.00;0.00;;;;;;;;;;5007357;28;20041;-86
2023/10/30 04:13:58;;;;;;;0.00;0.00;;;;;;;;;;4981536;28;20033;-86
2023/10/30 04:16:24;;;;;;;0.00;0.00;;;;;;;;;;4996870;28;20025;-85
2023/10/30 04:18:50;;;;;;;0.00;0.00;;;;;;;;;;4996919;28;20479;-86
2023/10/30 04:21:16;;;;;;;0.00;0.00;;;;;;;;;;5016252;28;20045;-85
2023/10/30 04:23:43;;;;;;;0.00;0.00;;;;;;;;;;5004158;28;20120;-85
2023/10/30 04:26:09;;;;;;;0.00;0.00;;;;;;;;;;5044117;28;20017;-86
2023/10/30 04:28:34;;;;;;;0.00;0.00;;;;;;;;;;5027019;28;20057;-86
2023/10/30 04:31:01;;;;;;;0.00;0.00;;;;;;;;;;5032874;28;20029;-86
2023/10/30 04:34:12;;;;;;;0.00;0.00;;;;;;;;;;5034373;28;20032;-85
2023/10/30 04:36:36;;;;;;;0.00;0.00;;;;;;;;;;5024584;28;20026;-85
2023/10/30 04:39:02;;;;;;;0.00;0.00;;;;;;;;;;5013063;28;20038;-84
2023/10/30 04:41:27;;;;;;;0.00;0.00;;;;;;;;;;4963609;28;20041;-85
2023/10/30 04:43:53;;;;;;;0.00;0.00;;;;;;;;;;4980334;28;20069;-85
2023/10/30 04:46:18;;;;;;;0.00;0.00;;;;;;;;;;4992583;28;20026;-85
2023/10/30 04:48:44;;;;;;;0.00;0.00;;;;;;;;;;4997889;28;20054;-86
2023/10/30 04:51:09;;;;;;;0.00;0.00;;;;;;;;;;5014443;28;20046;-85
2023/10/30 04:53:34;;;;;;;0.00;0.00;;;;;;;;;;4996730;28;20040;-85
2023/10/30 04:56:02;;;;;;;0.00;0.00;;;;;;;;;;5014307;28;20029;-86
2023/10/30 04:58:42;;;;;;;0.00;0.00;;;;;;;;;;4997598;28;20133;-86
2023/10/30 05:01:13;;;;;;;;;;;;;;;;;;4965957;28;20034;-86
2023/10/30 05:03:38;;;;;;;;;;;;;;;;;;4998990;28;19925;-86
2023/10/30 05:06:04;;;;;;;0.00;0.00;;;;;;;;;;5010009;28;20236;-86
2023/10/30 05:08:30;;;;;;;0.00;0.00;;;;;;;;;;4995769;28;20053;-86
2023/10/30 05:10:55;;;;;;;0.00;0.00;;;;;;;;;;5014064;28;20042;-85
2023/10/30 05:13:21;;;;;;;0.00;0.00;;;;;;;;;;4983198;28;20037;-86
2023/10/30 05:15:46;;;;;;;0.00;0.00;;;;;;;;;;4976385;28;20109;-87
2023/10/30 05:18:13;;;;;;;0.00;0.00;;;;;;;;;;4994379;28;20073;-86
2023/10/30 05:20:38;;;;;;;0.00;0.00;;;;;;;;;;4979676;28;20035;-86
2023/10/30 05:23:04;;;;;;;0.00;0.00;;;;;;;;;;4983979;28;20040;-87
2023/10/30 05:25:29;;;;;;;0.00;0.00;;;;;;;;;;5014692;28;20026;-87
2023/10/30 05:28:03;;;;;;;0.00;0.00;;;;;;;;;;4968654;28;20502;-86
2023/10/30 05:30:54;;;;;;;0.00;0.00;;;;;;;;;;5000361;28;20042;-86
2023/10/30 05:33:22;;;;;;;0.00;0.00;;;;;;;;;;4993643;28;20065;-86
2023/10/30 05:35:51;;;;;;;0.00;0.00;;;;;;;;;;5017543;28;20032;-85
2023/10/30 05:38:18;;;;;;;0.00;0.00;;;;;;;;;;4999671;28;20064;-85
2023/10/30 05:40:57;;;;;;;0.00;0.00;;;;;;;;;;4982976;28;20025;-85
2023/10/30 05:43:22;;;;;;;0.00;0.00;;;;;;;;;;4989340;28;20048;-85
2023/10/30 05:45:48;;;;;;;0.00;0.00;;;;;;;;;;5032542;28;20058;-85
2023/10/30 05:48:27;;;;;;;0.00;0.00;;;;;;;;;;5001675;28;20025;-85
2023/10/30 05:51:03;;;;;;;0.00;0.00;;;;;;;;;;4985798;28;20049;-85
2023/10/30 05:53:29;;;;;;;0.10;0.00;;;;;;;;;;4968907;28;20045;-85
2023/10/30 05:55:54;;;;;;;0.00;0.00;;;;;;;;;;5017019;28;20030;-84
2023/10/30 05:58:20;;;;;;;0.00;0.00;;;;;;;;;;4999700;28;20037;-85
2023/10/30 06:00:45;;;;;;;0.00;0.00;;;;;;;;;;4983458;28;20420;-85
2023/10/30 06:03:10;;;;;;;0.00;0.00;;;;;;;;;;4997020;28;20056;-85
2023/10/30 06:05:36;;;;;;;0.00;0.00;;;;;;;;;;4985371;28;20034;-84
2023/10/30 06:08:02;;;;;;;0.00;0.00;;;;;;;;;;4996937;28;20034;-84
2023/10/30 06:10:28;;;;;;;0.00;0.00;;;;;;;;;;4996957;28;20120;-84
2023/10/30 06:12:53;;;;;;;0.00;0.00;;;;;;;;;;4963384;28;20440;-86
2023/10/30 06:15:19;;;;;;;0.00;0.00;;;;;;;;;;5007343;28;20026;-85
2023/10/30 06:17:44;;;;;;;0.00;0.00;;;;;;;;;;5016213;28;20026;-85
2023/10/30 06:20:10;;;;;;;0.00;0.00;;;;;;;;;;4966986;28;20022;-85
2023/10/30 06:22:35;;;;;;;0.00;0.00;;;;;;;;;;5033074;28;20032;-84
2023/10/30 06:25:01;;;;;;;0.00;0.00;;;;;;;;;;5030591;28;20349;-86
2023/10/30 06:27:27;;;;;;;0.00;0.00;;;;;;;;;;5036608;28;20053;-86
2023/10/30 06:30:08;;;;;;;0.00;0.00;;;;;;;;;;5018474;28;20045;-86
2023/10/30 06:35:20;;;;;;;0.00;0.00;;;;;;;;;;5035670;28;20032;-85
2023/10/30 06:37:51;;;;;;;0.00;0.00;;;;;;;;;;5036087;28;20029;-85
2023/10/30 06:40:16;;;;;;;0.00;0.00;;;;;;;;;;5038070;28;20436;-85
2023/10/30 06:42:42;;;;;;;0.00;0.00;;;;;;;;;;5023095;28;20014;-86
2023/10/30 06:45:13;;;;;;;0.00;0.00;;;;;;;;;;4999157;28;20053;-86
2023/10/30 06:47:38;;;;;;;0.00;0.00;;;;;;;;;;4983752;28;20128;-86
2023/10/30 06:50:04;;;;;;;0.00;0.00;;;;;;;;;;5016119;28;20153;-86
2023/10/30 06:52:29;;;;;;;0.00;0.00;;;;;;;;;;5015939;28;20502;-84
2023/10/30 06:54:55;;;;;;;0.00;0.00;;;;;;;;;;5015718;28;20033;-85
2023/10/30 06:57:20;;;;;;;0.00;0.00;;;;;;;;;;4998618;28;20030;-86
2023/10/30 06:59:45;;;;;;;0.00;0.00;;;;;;;;;;5003275;28;20034;-84
2023/10/30 07:02:14;;;;;;;0.00;0.00;;;;;;;;;;5034917;28;20026;-84
2023/10/30 07:04:52;;;;;;;0.00;0.00;;;;;;;;;;4998460;28;20041;-84
2023/10/30 07:07:17;;;;;;;0.00;0.00;;;;;;;;;;5013308;28;20064;-87
2023/10/30 07:09:50;;;;;;;0.00;0.00;;;;;;;;;;4998569;28;20399;-84
2023/10/30 07:12:15;;;;;;;0.00;0.00;;;;;;;;;;5015758;28;20053;-84
2023/10/30 07:14:41;;;;;;;0.00;0.00;;;;;;;;;;4998239;28;20026;-85
2023/10/30 07:17:06;;;;;;;0.00;0.00;;;;;;;;;;4979655;28;20041;-85
2023/10/30 07:19:48;;;;;;;0.00;0.00;;;;;;;;;;5040801;28;20080;-86
2023/10/30 07:22:19;;;;;;;0.00;0.00;;;;;;;;;;5047923;28;20435;-85
2023/10/30 07:24:47;;;;;;;0.00;0.00;;;;;;;;;;5026554;28;20060;-85
2023/10/30 07:27:13;;;;;;;0.00;0.00;;;;;;;;;;5014160;28;20045;-86
2023/10/30 07:29:39;;;;;;;0.00;0.00;;;;;;;;;;5015381;28;20029;-86
2023/10/30 07:32:04;;;;;;;0.00;0.00;;;;;;;;;;4997294;28;20087;-87
2023/10/30 07:34:30;;;;;;;0.00;0.00;;;;;;;;;;5014099;28;20050;-86
2023/10/30 07:37:39;;;;;;;0.00;0.00;;;;;;;;;;4998267;28;20448;-86
2023/10/30 07:40:05;;;;;;;0.00;0.00;;;;;;;;;;4996883;28;20045;-87
2023/10/30 07:42:44;;;;;;;;;;;;;;;;;;;;;
2023/10/30 07:48:20;;;;;;;0.00;0.00;;;;;;;;;;4934917;29;20064;-86
2023/10/30 07:50:48;;;;;;;0.00;0.00;;;;;;;;;;4998799;28;20442;-86
2023/10/30 07:53:17;;;;;;;0.00;0.00;;;;;;;;;;4996993;28;20417;-86
2023/10/30 07:55:45;;;;;;;0.00;0.00;;;;;;;;;;5014935;28;20042;-87
2023/10/30 07:58:12;;;;;;;0.00;0.00;;;;;;;;;;4999000;28;20391;-86
2023/10/30 08:03:55;;;;;;;0.00;0.00;;;;;;;;;;5015404;28;20056;-86
2023/10/30 08:06:20;;;;;;;0.00;0.00;;;;;;;;;;4997375;28;20053;-86
2023/10/30 08:08:46;;;;;;;0.00;0.00;;;;;;;;;;4997551;28;20468;-87
2023/10/30 08:11:11;;;;;;;0.00;0.00;;;;;;;;;;5014757;28;20034;-86
2023/10/30 08:13:37;;;;;;;0.00;0.00;;;;;;;;;;5014934;28;20088;-86
2023/10/30 08:16:04;;;;;;;0.00;0.00;;;;;;;;;;5015861;28;20042;-87
2023/10/30 08:18:29;;;;;;;0.00;0.00;;;;;;;;;;5029190;28;20061;-86
2023/10/30 08:21:13;;;;;;;0.00;0.00;;;;;;;;;;5020443;28;20038;-86
2023/10/30 08:24:11;;;;;;;0.00;0.00;;;;;;;;;;5004062;28;20363;-86
2023/10/30 08:26:37;;;;;;;0.00;0.00;;;;;;;;;;4985154;28;20114;-85
2023/10/30 08:32:22;;;;;;;0.00;0.00;;;;;;;;;;4996080;28;20165;-86
2023/10/30 08:34:47;;;;;;;0.00;0.00;;;;;;;;;;4999080;28;20030;-85
2023/10/30 08:37:13;;;;;;;0.00;0.00;;;;;;;;;;4989765;28;20050;-87
2023/10/30 08:39:43;;;;;;;0.00;0.00;;;;;;;;;;4990021;28;20038;-86
2023/10/30 08:42:08;;;;;;;0.00;0.00;;;;;;;;;;4996199;28;20041;-86
2023/10/30 08:44:34;;;;;;;0.00;0.00;;;;;;;;;;4977281;28;20140;-85
2023/10/30 08:46:59;;;;;;;0.00;0.00;;;;;;;;;;4977434;28;20042;-85
2023/10/30 08:49:25;;;;;;;0.00;0.00;;;;;;;;;;4944787;28;20084;-85
2023/10/30 08:51:51;;;;;;;0.00;0.00;;;;;;;;;;4993704;28;20035;-86
2023/10/30 08:54:16;;;;;;;0.00;0.00;;;;;;;;;;4977809;28;20030;-86
2023/10/30 08:56:43;;;;;;;0.00;0.00;;;;;;;;;;5004170;28;20026;-87
2023/10/30 08:59:10;;;;;;;0.00;0.00;;;;;;;;;;4992210;28;20031;-86
2023/10/30 09:01:35;;;;;;;0.00;0.00;;;;;;;;;;4965110;28;20049;-86
2023/10/30 09:04:02;;;;;;;0.00;0.00;;;;;;;;;;4981251;28;20448;-86
2023/10/30 09:06:27;;;;;;;0.00;0.00;;;;;;;;;;4964758;28;20034;-86
2023/10/30 09:08:56;;;;;;;0.00;0.00;;;;;;;;;;4980722;28;20041;-86
2023/10/30 09:11:22;;;;;;;0.00;0.00;;;;;;;;;;4980670;28;20049;-86
2023/10/30 09:13:47;;;;;;;0.00;0.00;;;;;;;;;;4964645;28;20042;-85
2023/10/30 09:16:13;;;;;;;0.00;0.00;;;;;;;;;;4991762;28;20125;-85
2023/10/30 09:18:38;;;;;;;0.00;0.00;;;;;;;;;;4988879;28;20444;-86
2023/10/30 09:21:08;;;;;;;0.00;0.00;;;;;;;;;;4979193;28;20025;-85
2023/10/30 09:23:33;;;;;;;0.00;0.00;;;;;;;;;;4983881;28;20444;-86
2023/10/30 09:25:59;;;;;;;0.00;0.00;;;;;;;;;;5031803;28;20022;-84
2023/10/30 09:28:24;;;;;;;0.00;0.00;;;;;;;;;;5019380;28;20028;-84
2023/10/30 09:30:50;;;;;;;0.00;0.00;;;;;;;;;;5036705;28;20462;-85
2023/10/30 09:33:15;;;;;;;0.00;0.00;;;;;;;;;;5020062;28;20052;-85
2023/10/30 09:35:42;;;;;;;0.00;0.00;;;;;;;;;;5012115;28;20009;-86
2023/10/30 09:39:05;;;;;;;0.00;0.00;;;;;;;;;;5021774;28;20424;-85
2023/10/30 09:41:31;;;;;;;0.00;0.00;;;;;;;;;;4999441;28;20451;-85
2023/10/30 09:44:19;;;;;;;0.00;0.00;;;;;;;;;;5019740;28;20099;-85
2023/10/30 09:46:45;;;;;;;0.00;0.00;;;;;;;;;;5019683;28;20041;-85
2023/10/30 09:49:13;;;;;;;0.00;0.00;;;;;;;;;;5018558;28;20320;-87
2023/10/30 09:51:38;;;;;;;0.00;0.00;;;;;;;;;;5019434;28;20084;-86
2023/10/30 09:54:04;;;;;;;0.00;0.00;;;;;;;;;;5005310;28;20048;-86
2023/10/30 09:56:31;;;;;;;0.00;0.00;;;;;;;;;;5027640;28;20065;-84
2023/10/30 09:58:57;;;;;;;0.00;0.00;;;;;;;;;;5003302;28;20025;-86
2023/10/30 10:01:23;;;;;;;0.00;0.00;;;;;;;;;;5036569;28;20440;-84
2023/10/30 10:03:48;;;;;;;0.00;0.00;;;;;;;;;;5036655;28;20026;-85
2023/10/30 10:06:18;;;;;;;0.00;0.00;;;;;;;;;;5036867;28;20374;-86
2023/10/30 10:08:44;;;;;;;0.00;0.00;;;;;;;;;;5020934;28;20041;-86
2023/10/30 10:11:23;;;;;;;0.00;0.00;;;;;;;;;;5036293;28;20033;-85
2023/10/30 10:13:49;;;;;;;0.00;0.00;;;;;;;;;;5045957;28;20101;-86
2023/10/30 10:16:14;;;;;;;0.00;0.00;;;;;;;;;;5024637;28;20037;-85
2023/10/30 10:18:40;;;;;;;0.00;0.00;;;;;;;;;;5010944;28;20026;-86
2023/10/30 10:21:11;;;;;;;0.00;0.00;;;;;;;;;;4998770;28;20041;-86
2023/10/30 10:23:37;;;;;;;0.00;0.00;;;;;;;;;;4993676;28;20029;-85
2023/10/30 10:26:04;;;;;;;0.00;0.00;;;;;;;;;;4998658;28;20065;-85
2023/10/30 10:28:30;;;;;;;0.00;0.00;;;;;;;;;;4998416;28;20100;-85
2023/10/30 10:30:55;;;;;;;0.00;0.00;;;;;;;;;;4998692;28;20459;-85
2023/10/30 10:33:21;;;;;;;0.00;0.00;;;;;;;;;;5007404;28;20061;-86
2023/10/30 10:35:57;;;;;;;0.00;0.00;;;;;;;;;;5000622;28;20426;-85
2023/10/30 10:38:23;;;;;;;0.00;0.00;;;;;;;;;;4947385;28;20432;-85
2023/10/30 10:40:51;;;;;;;0.00;0.00;;;;;;;;;;4996305;28;20042;-85
2023/10/30 10:43:19;;;;;;;0.00;0.00;;;;;;;;;;4979246;28;20058;-85
2023/10/30 10:45:48;;;;;;;0.00;0.00;;;;;;;;;;4996052;28;20084;-87
2023/10/30 10:48:14;;;;;;;0.00;0.00;;;;;;;;;;4963106;28;20035;-85
2023/10/30 10:50:41;;;;;;;0.00;0.00;;;;;;;;;;4962874;28;20068;-85
2023/10/30 10:53:07;;;;;;;0.00;0.00;;;;;;;;;;5034160;23;21109;-85
2023/10/30 10:55:41;;;;;;;0.00;0.00;;;;;;;;;;4945031;28;20077;-86
2023/10/30 10:58:21;;;;;;;0.00;0.00;;;;;;;;;;4976925;28;20400;-85
2023/10/30 11:00:53;;;;;;;0.00;0.00;;;;;;;;;;4976864;28;20357;-85
2023/10/30 11:03:21;;;;;;;0.00;0.00;;;;;;;;;;4959827;28;20373;-85
2023/10/30 11:12:14;;;;;;;0.00;0.00;;;;;;;;;;4925141;29;20049;-85
2023/10/30 11:15:30;;;;;;;0.00;0.00;;;;;;;;;;4907496;29;20045;-86
2023/10/30 11:18:20;;;;;;;0.00;0.00;;;;;;;;;;4893725;29;20494;-85
2023/10/30 11:20:53;;;;;;;0.10;0.00;;;;;;;;;;4886664;29;20075;-83
2023/10/30 11:23:52;;;;;;;0.00;0.00;;;;;;;;;;4884207;29;20056;-85
2023/10/30 11:26:36;;;;;;;0.00;0.00;;;;;;;;;;4931282;29;20554;-85
2023/10/30 11:29:26;;;;;;;0.00;0.00;;;;;;;;;;4928017;29;20051;-85
2023/10/30 11:31:56;;;;;;;0.00;0.00;;;;;;;;;;4921096;29;20035;-85
2023/10/30 11:34:34;;;;;;;;;;;;;;;;;;4936199;29;20159;-85
2023/10/30 11:37:18;;;;;;;0.00;0.00;;;;;;;;;;4936514;29;19983;-85
2023/10/30 11:39:45;;;;;;;0.10;0.00;;;;;;;;;;4943651;28;20459;-85
2023/10/30 11:42:23;;;;;;;0.00;0.00;;;;;;;;;;4962061;28;20026;-85
2023/10/30 11:44:52;;;;;;;0.00;0.00;;;;;;;;;;4985060;28;20085;-84
2023/10/30 11:47:19;;;;;;;0.00;0.00;;;;;;;;;;4958583;28;20137;-86
2023/10/30 11:49:44;;;;;;;0.00;0.00;;;;;;;;;;4978866;28;20027;-86
2023/10/30 11:53:23;;;;;;;0.00;0.00;;;;;;;;;;4948221;28;20035;-85
2023/10/30 11:55:49;;;;;;;0.25;0.00;;;;;;;;;;4976218;28;20046;-85
2023/10/30 11:58:15;;;;;;;0.00;0.00;;;;;;;;;;4942430;28;20030;-85
2023/10/30 12:00:49;;;;;;;0.00;0.00;;;;;;;;;;4958468;28;20035;-86
2023/10/30 12:03:20;;;;;;;0.00;0.00;;;;;;;;;;4959057;28;20465;-86
2023/10/30 12:05:46;;;;;;;0.00;0.00;;;;;;;;;;4958802;28;20023;-84
2023/10/30 12:08:11;;;;;;;0.00;0.00;;;;;;;;;;4985186;28;20023;-86
2023/10/30 12:10:37;;;;;;;0.00;0.00;;;;;;;;;;4970427;28;20068;-86
2023/10/30 12:13:04;;;;;;;0.00;0.00;;;;;;;;;;4942641;28;20027;-85
2023/10/30 12:15:29;;;;;;;0.00;0.00;;;;;;;;;;4943057;28;20053;-85
2023/10/30 12:17:55;;;;;;;0.00;0.00;;;;;;;;;;4958254;28;20073;-85
2023/10/30 12:20:20;;;;;;;0.00;0.00;;;;;;;;;;4958149;28;20034;-86
2023/10/30 12:22:46;;;;;;;0.00;0.00;;;;;;;;;;4958637;28;20060;-86
2023/10/30 12:25:19;;;;;;;0.00;0.00;;;;;;;;;;4975101;28;20028;-86
2023/10/30 12:27:45;;;;;;;0.00;0.00;;;;;;;;;;4972628;28;20018;-85
2023/10/30 12:30:17;;;;;;;0.00;0.00;;;;;;;;;;4938100;29;20361;-86
2023/10/30 12:32:51;;;;;;;0.00;0.00;;;;;;;;;;4956440;29;20065;-85
2023/10/30 12:35:17;;;;;;;0.00;0.00;;;;;;;;;;4955930;29;20032;-86
2023/10/30 12:37:43;;;;;;;0.00;0.00;;;;;;;;;;4923155;29;20335;-86
2023/10/30 12:40:09;;;;;;;0.00;0.00;;;;;;;;;;4955735;29;20027;-85
2023/10/30 12:42:36;;;;;;;0.00;0.00;;;;;;;;;;4955718;29;20024;-85
2023/10/30 12:45:05;;;;;;;0.00;0.00;;;;;;;;;;4925773;29;20488;-85
2023/10/30 12:47:31;;;;;;;0.00;0.00;;;;;;;;;;4995225;28;20034;-85
2023/10/30 12:49:56;;;;;;;0.00;0.00;;;;;;;;;;4964725;28;20049;-86
2023/10/30 12:52:22;;;;;;;0.00;0.00;;;;;;;;;;4994346;28;20042;-86
2023/10/30 12:54:47;;;;;;;0.00;0.00;;;;;;;;;;5009578;28;20141;-86
2023/10/30 12:57:12;;;;;;;0.00;0.00;;;;;;;;;;5012536;28;20045;-85
2023/10/30 12:59:38;;;;;;;0.00;0.00;;;;;;;;;;5014241;28;20448;-85
2023/10/30 13:02:20;;;;;;;0.00;0.00;;;;;;;;;;5014275;28;20128;-86
2023/10/30 13:04:46;;;;;;;0.00;0.00;;;;;;;;;;5019169;28;20050;-86
2023/10/30 13:07:11;;;;;;;0.00;0.00;;;;;;;;;;5025655;28;20049;-86
2023/10/30 13:10:06;;;;;;;0.00;0.00;;;;;;;;;;4996776;28;20033;-85
2023/10/30 13:12:32;;;;;;;0.00;0.00;;;;;;;;;;5014410;28;20036;-86
2023/10/30 13:15:20;;;;;;;0.00;0.00;;;;;;;;;;5014636;28;20034;-85
2023/10/30 13:17:45;;;;;;;0.00;0.00;;;;;;;;;;5005884;28;20440;-86
2023/10/30 13:20:11;;;;;;;0.00;0.00;;;;;;;;;;4994196;28;20117;-86
2023/10/30 13:22:38;;;;;;;0.00;0.00;;;;;;;;;;4994400;28;20117;-86
2023/10/30 13:25:04;;;;;;;0.00;0.00;;;;;;;;;;4987701;28;20041;-87
2023/10/30 13:27:33;;;;;;;0.00;0.00;;;;;;;;;;4985591;28;20026;-86
2023/10/30 13:29:59;;;;;;;0.00;0.00;;;;;;;;;;4960949;28;20034;-86
2023/10/30 13:32:24;;;;;;;0.00;0.00;;;;;;;;;;4993817;28;20030;-86
2023/10/30 13:34:50;;;;;;;0.00;0.00;;;;;;;;;;4944808;28;20097;-86
2023/10/30 13:37:15;;;;;;;0.00;0.00;;;;;;;;;;4977554;28;20030;-86
2023/10/30 13:39:41;;;;;;;0.00;0.00;;;;;;;;;;4977155;28;20117;-86
2023/10/30 13:42:06;;;;;;;0.00;0.00;;;;;;;;;;4979627;28;20030;-86
2023/10/30 13:44:32;;;;;;;0.00;0.00;;;;;;;;;;4997099;28;20097;-86
2023/10/30 13:46:57;;;;;;;0.00;0.00;;;;;;;;;;5003688;28;20380;-86
2023/10/30 13:49:23;;;;;;;0.00;0.00;;;;;;;;;;4997150;28;20036;-86
2023/10/30 13:51:48;;;;;;;0.00;0.00;;;;;;;;;;4997478;28;20038;-86
2023/10/30 13:54:14;;;;;;;0.00;0.00;;;;;;;;;;4963940;28;20054;-85
2023/10/30 13:56:39;;;;;;;0.00;0.00;;;;;;;;;;4979465;28;20081;-85
2023/10/30 13:59:16;;;;;;;0.00;0.00;;;;;;;;;;4980023;28;20064;-85
2023/10/30 14:01:50;;;;;;;0.00;0.00;;;;;;;;;;4980218;28;20368;-85
2023/10/30 14:04:16;;;;;;;0.00;0.00;;;;;;;;;;5014088;28;20089;-85
2023/10/30 14:06:41;;;;;;;0.00;0.00;;;;;;;;;;4972839;28;20034;-84
2023/10/30 14:09:07;;;;;;;0.00;0.00;;;;;;;;;;4974634;28;20026;-85
2023/10/30 14:11:32;;;;;;;0.00;0.00;;;;;;;;;;4957424;28;20038;-85
2023/10/30 14:13:58;;;;;;;0.00;0.00;;;;;;;;;;4958451;28;20041;-85
2023/10/30 14:16:24;;;;;;;0.00;0.00;;;;;;;;;;5008114;28;20070;-84
2023/10/30 14:18:49;;;;;;;0.00;0.00;;;;;;;;;;4960104;28;20057;-85
2023/10/30 14:21:16;;;;;;;0.00;0.00;;;;;;;;;;4985719;28;20701;-84
2023/10/30 14:23:41;;;;;;;0.00;0.00;;;;;;;;;;5003509;28;20016;-87
2023/10/30 14:26:07;;;;;;;0.00;0.00;;;;;;;;;;4991004;28;20117;-85
2023/10/30 14:28:43;;;;;;;0.00;0.00;;;;;;;;;;4978890;28;20467;-85
2023/10/30 14:31:08;;;;;;;0.00;0.00;;;;;;;;;;4942893;28;20368;-86
2023/10/30 14:33:39;;;;;;;0.00;0.00;;;;;;;;;;4960265;28;20133;-85
2023/10/30 14:36:05;;;;;;;0.00;0.00;;;;;;;;;;4930228;28;20026;-86
2023/10/30 14:38:30;;;;;;;0.00;0.00;;;;;;;;;;4928120;28;20133;-85
2023/10/30 14:40:56;;;;;;;0.00;0.00;;;;;;;;;;4980222;28;20042;-86
2023/10/30 14:43:21;;;;;;;0.00;0.00;;;;;;;;;;4991717;28;20022;-86
2023/10/30 14:45:49;;;;;;;0.00;0.00;;;;;;;;;;4943993;28;20034;-86
2023/10/30 14:48:18;;;;;;;0.00;0.00;;;;;;;;;;4944231;28;20106;-86
2023/10/30 14:50:44;;;;;;;0.00;0.00;;;;;;;;;;4951549;28;20488;-86
2023/10/30 14:57:03;;;;;;;0.00;0.00;;;;;;;;;;4965492;28;20068;-86
2023/10/30 14:59:28;;;;;;;0.00;0.00;;;;;;;;;;4978383;28;20126;-86
2023/10/30 15:01:54;;;;;;;0.00;0.00;;;;;;;;;;5000065;28;20019;-86
2023/10/30 15:04:19;;;;;;;0.00;0.00;;;;;;;;;;4948350;28;20042;-86
2023/10/30 15:06:47;;;;;;;0.00;0.00;;;;;;;;;;4959292;28;20035;-86
2023/10/30 15:09:16;;;;;;;0.00;0.00;;;;;;;;;;4928205;28;20034;-86
2023/10/30 15:11:41;;;;;;;0.00;0.00;;;;;;;;;;4928480;28;20038;-86
2023/10/30 15:14:07;;;;;;;0.10;0.00;;;;;;;;;;4959549;28;20365;-86
2023/10/30 15:16:32;;;;;;;0.00;0.00;;;;;;;;;;4927678;28;20030;-86
2023/10/30 15:18:57;;;;;;;0.00;0.00;;;;;;;;;;4988193;28;20133;-86